Time;durP1;ratioP1;P1;durP2;ratioP2;P2;SDS_P1;SDS_P2;PMS_P1;PMS_P2;Temp;Humidity;BMP_temperature;BMP_pressure;BME280_temperature;BME280_humidity;BME280_pressure;Samples;Min_cycle;Max_cycle;Signal;HPM_P1;HPM_P2
2023/04/24 00:02:20;;;;;;;1.10;0.80;;;;;;;7.29;100.00;99723.14;105200;1259;68026;-48
2023/04/24 00:04:48;;;;;;;1.30;0.90;;;;;;;7.27;100.00;99722.50;105170;1260;72747;-50
2023/04/24 00:07:19;;;;;;;1.20;0.90;;;;;;;7.24;100.00;99725.98;105779;1253;60550;-50
2023/04/24 00:09:46;;;;;;;1.50;0.90;;;;;;;7.21;100.00;99723.95;106015;1253;60467;-50
2023/04/24 00:12:13;;;;;;;1.30;0.90;;;;;;;7.20;100.00;99720.78;105219;1260;75444;-48
2023/04/24 00:14:40;;;;;;;1.80;0.80;;;;;;;7.18;100.00;99727.61;105309;1254;66980;-50
2023/04/24 00:17:07;;;;;;;1.30;0.90;;;;;;;7.17;100.00;99722.29;105658;1255;73227;-50
2023/04/24 00:19:34;;;;;;;1.10;0.70;;;;;;;7.17;100.00;99718.39;105223;1254;62194;-49
2023/04/24 00:22:02;;;;;;;1.30;0.80;;;;;;;7.19;100.00;99720.45;105536;1254;62207;-51
2023/04/24 00:24:29;;;;;;;2.00;0.70;;;;;;;7.21;100.00;99719.84;105397;1254;73012;-48
2023/04/24 00:26:55;;;;;;;1.20;0.80;;;;;;;7.24;100.00;99721.15;105360;1254;67719;-48
2023/04/24 00:29:22;;;;;;;1.10;0.80;;;;;;;7.27;100.00;99718.75;105466;1254;72439;-50
2023/04/24 00:31:49;;;;;;;1.40;0.80;;;;;;;7.29;100.00;99719.20;105184;1257;61342;-48
2023/04/24 00:34:16;;;;;;;0.90;0.70;;;;;;;7.32;100.00;99716.77;105399;1254;60354;-49
2023/04/24 00:36:43;;;;;;;1.20;0.80;;;;;;;7.35;100.00;99714.34;105383;1258;74797;-49
2023/04/24 00:39:10;;;;;;;1.50;0.80;;;;;;;7.38;100.00;99713.36;105255;1254;66178;-49
2023/04/24 00:41:37;;;;;;;1.70;0.80;;;;;;;7.38;100.00;99714.25;105159;1261;73165;-51
2023/04/24 00:44:03;;;;;;;2.00;1.00;;;;;;;7.38;100.00;99710.34;105156;1260;60522;-49
2023/04/24 00:46:30;;;;;;;3.70;0.90;;;;;;;7.37;100.00;99710.18;105270;1254;61073;-51
2023/04/24 00:48:59;;;;;;;1.90;0.90;;;;;;;7.35;100.00;99710.23;105183;1259;75630;-50
2023/04/24 00:51:27;;;;;;;2.50;0.80;;;;;;;7.35;100.00;99712.55;105316;1256;69536;-51
2023/04/24 00:53:53;;;;;;;2.20;1.30;;;;;;;7.35;100.00;99709.34;105958;1256;74605;-49
2023/04/24 00:56:20;;;;;;;1.80;0.90;;;;;;;7.36;100.00;99702.90;105288;1255;61196;-50
2023/04/24 00:58:47;;;;;;;2.20;0.80;;;;;;;7.37;100.00;99699.83;105311;1258;60470;-48
2023/04/24 01:01:14;;;;;;;1.50;0.80;;;;;;;7.38;100.00;99699.07;105297;1255;76441;-49
2023/04/24 01:03:41;;;;;;;1.10;0.70;;;;;;;7.40;100.00;99700.93;105298;1256;68369;-48
2023/04/24 01:06:08;;;;;;;2.50;0.60;;;;;;;7.43;100.00;99699.77;105285;1255;72296;-47
2023/04/24 01:08:34;;;;;;;1.50;0.90;;;;;;;7.45;100.00;99698.08;105310;1260;62271;-49
2023/04/24 01:11:03;;;;;;;1.50;0.70;;;;;;;7.49;100.00;99696.17;105596;1253;60728;-50
2023/04/24 01:13:31;;;;;;;1.50;0.90;;;;;;;7.52;100.00;99694.26;107072;1253;74300;-50
2023/04/24 01:15:57;;;;;;;0.90;0.80;;;;;;;7.56;100.00;99688.77;105383;1253;66969;-49
2023/04/24 01:18:24;;;;;;;2.60;0.90;;;;;;;7.61;100.00;99687.86;105176;1254;72845;-50
2023/04/24 01:20:52;;;;;;;1.30;0.80;;;;;;;7.65;100.00;99685.38;105221;1254;60540;-50
2023/04/24 01:23:19;;;;;;;2.40;0.90;;;;;;;7.69;100.00;99681.83;105178;1255;60499;-51
2023/04/24 01:25:46;;;;;;;1.80;1.30;;;;;;;7.73;100.00;99681.51;106017;1258;74966;-48
2023/04/24 01:28:13;;;;;;;2.40;1.00;;;;;;;7.76;100.00;99683.54;105419;1254;69824;-50
2023/04/24 01:30:40;;;;;;;2.20;0.90;;;;;;;7.78;100.00;99678.09;105131;1253;73626;-50
2023/04/24 01:33:07;;;;;;;1.20;0.80;;;;;;;7.81;100.00;99675.68;105267;1253;60528;-50
2023/04/24 01:35:35;;;;;;;3.20;0.90;;;;;;;7.85;100.00;99677.30;105259;1253;60626;-51
2023/04/24 01:38:02;;;;;;;1.90;0.90;;;;;;;7.87;100.00;99669.35;105383;1254;73611;-51
2023/04/24 01:40:29;;;;;;;3.20;0.90;;;;;;;7.90;100.00;99667.64;105421;1253;70333;-49
2023/04/24 01:42:57;;;;;;;2.20;0.80;;;;;;;7.94;100.00;99668.55;105130;1254;72779;-51
2023/04/24 01:45:24;;;;;;;1.30;0.90;;;;;;;7.97;100.00;99665.40;105197;1258;64530;-50
2023/04/24 01:47:51;;;;;;;1.40;1.10;;;;;;;8.00;100.00;99663.30;106785;1254;61734;-46
2023/04/24 01:50:18;;;;;;;1.60;0.90;;;;;;;8.04;100.00;99659.77;104970;1253;73623;-51
2023/04/24 01:52:45;;;;;;;2.10;1.00;;;;;;;8.08;100.00;99658.52;105253;1253;66785;-47
2023/04/24 01:55:11;;;;;;;3.10;1.10;;;;;;;8.12;100.00;99651.74;105090;1260;73644;-49
2023/04/24 01:57:38;;;;;;;2.40;1.00;;;;;;;8.17;100.00;99654.96;105155;1260;64098;-49
2023/04/24 02:00:06;;;;;;;1.00;0.80;;;;;;;8.21;100.00;99651.20;105153;1260;60540;-50
2023/04/24 02:02:39;;;;;;;3.20;1.20;;;;;;;8.26;100.00;99648.67;108690;1253;75293;-51
2023/04/24 02:05:07;;;;;;;2.80;1.10;;;;;;;8.30;100.00;99641.36;108847;1253;65893;-48
2023/04/24 02:07:35;;;;;;;2.50;1.20;;;;;;;8.36;100.00;99636.33;108837;1253;74642;-49
2023/04/24 02:10:03;;;;;;;2.60;1.20;;;;;;;8.41;100.00;99636.46;108768;1255;60431;-49
2023/04/24 02:12:30;;;;;;;1.70;1.30;;;;;;;8.46;100.00;99631.63;108777;1258;62141;-48
2023/04/24 02:14:57;;;;;;;3.30;1.30;;;;;;;8.51;100.00;99631.95;108774;1253;74319;-48
2023/04/24 02:17:24;;;;;;;3.20;1.90;;;;;;;8.55;100.00;99627.52;108835;1253;67096;-48
2023/04/24 02:19:51;;;;;;;2.20;1.30;;;;;;;8.58;100.00;99629.71;108789;1253;72633;-49
2023/04/24 02:22:17;;;;;;;3.50;1.20;;;;;;;8.59;100.00;99621.21;108051;1253;61223;-50
2023/04/24 02:24:44;;;;;;;1.90;1.10;;;;;;;8.61;100.00;99620.05;105182;1253;60833;-51
2023/04/24 02:27:14;;;;;;;1.40;0.90;;;;;;;8.64;100.00;99617.29;105174;1254;76179;-49
2023/04/24 02:29:41;;;;;;;2.20;1.10;;;;;;;8.65;100.00;99614.00;105411;1253;66269;-50
2023/04/24 02:32:11;;;;;;;4.50;1.20;;;;;;;8.67;100.00;99612.14;105335;1256;71806;-49
2023/04/24 02:34:38;;;;;;;3.30;1.10;;;;;;;8.69;100.00;99609.52;105294;1258;64302;-49
2023/04/24 02:37:05;;;;;;;2.90;1.40;;;;;;;8.70;100.00;99610.89;105084;1258;60416;-49
2023/04/24 02:39:32;;;;;;;3.40;1.30;;;;;;;8.72;100.00;99611.02;104534;1253;72167;-47
2023/04/24 02:41:59;;;;;;;4.70;1.40;;;;;;;8.74;100.00;99613.62;104877;1254;67958;-48
2023/04/24 02:44:26;;;;;;;1.70;1.10;;;;;;;8.76;100.00;99609.80;104855;1255;71858;-50
2023/04/24 02:46:53;;;;;;;2.10;0.90;;;;;;;8.77;100.00;99609.02;105166;1258;61648;-48
2023/04/24 02:49:20;;;;;;;2.40;1.20;;;;;;;8.78;100.00;99605.94;105240;1253;61704;-48
2023/04/24 02:51:46;;;;;;;3.10;1.10;;;;;;;8.78;100.00;99604.67;105135;1256;76300;-50
2023/04/24 02:54:13;;;;;;;6.40;1.20;;;;;;;8.78;100.00;99603.60;105263;1258;67870;-50
2023/04/24 02:56:40;;;;;;;2.40;1.20;;;;;;;8.78;100.00;99602.52;105269;1254;72531;-50
2023/04/24 02:59:07;;;;;;;2.20;1.40;;;;;;;8.78;100.00;99600.56;105330;1257;60434;-50
2023/04/24 03:01:34;;;;;;;4.40;1.70;;;;;;;8.77;100.00;99605.61;105284;1259;60679;-47
2023/04/24 03:04:01;;;;;;;5.10;1.40;;;;;;;8.76;100.00;99600.84;105702;1256;75144;-50
2023/04/24 03:06:31;;;;;;;3.10;1.30;;;;;;;8.74;100.00;99598.77;106844;1253;68455;-49
2023/04/24 03:08:57;;;;;;;6.70;1.50;;;;;;;8.73;100.00;99600.59;105191;1259;73322;-49
2023/04/24 03:11:25;;;;;;;3.40;1.80;;;;;;;8.73;100.00;99598.80;105065;1253;62519;-50
2023/04/24 03:13:51;;;;;;;1.80;1.20;;;;;;;8.75;100.00;99598.56;105276;1255;64043;-50
2023/04/24 03:16:18;;;;;;;4.50;1.40;;;;;;;8.77;100.00;99593.63;105272;1254;74936;-50
2023/04/24 03:18:45;;;;;;;2.00;1.10;;;;;;;8.79;100.00;99600.88;105273;1253;66343;-50
2023/04/24 03:21:12;;;;;;;1.70;1.10;;;;;;;8.82;100.00;99599.16;105206;1258;74217;-49
2023/04/24 03:23:39;;;;;;;3.60;1.10;;;;;;;8.85;100.00;99600.45;105175;1260;60771;-49
2023/04/24 03:26:06;;;;;;;1.20;0.80;;;;;;;8.88;100.00;99599.78;105192;1254;61674;-48
2023/04/24 03:28:34;;;;;;;1.70;0.90;;;;;;;8.90;100.00;99603.08;105164;1257;73612;-50
2023/04/24 03:31:03;;;;;;;3.40;1.30;;;;;;;8.94;100.00;99604.69;105167;1261;67692;-50
2023/04/24 03:33:33;;;;;;;1.60;1.10;;;;;;;8.98;100.00;99605.95;105416;1255;73276;-48
2023/04/24 03:36:00;;;;;;;2.00;1.30;;;;;;;9.02;100.00;99603.99;105376;1256;60520;-50
2023/04/24 03:38:33;;;;;;;3.10;1.20;;;;;;;9.04;100.00;99603.17;105220;1258;60626;-47
2023/04/24 03:41:16;;;;;;;3.20;1.30;;;;;;;9.05;100.00;99601.70;105175;1253;74999;-47
2023/04/24 03:43:46;;;;;;;1.50;0.90;;;;;;;9.03;100.00;99600.88;105305;1253;70014;-48
2023/04/24 03:46:13;;;;;;;2.50;1.40;;;;;;;9.04;100.00;99601.72;105242;1253;73084;-50
2023/04/24 03:48:43;;;;;;;3.30;1.50;;;;;;;9.07;100.00;99605.18;108268;1253;62531;-47
2023/04/24 03:51:10;;;;;;;2.10;1.00;;;;;;;9.10;100.00;99600.76;105191;1253;62582;-50
2023/04/24 03:53:38;;;;;;;1.90;1.10;;;;;;;9.15;100.00;99608.25;105287;1259;76009;-50
2023/04/24 03:56:06;;;;;;;1.40;1.00;;;;;;;9.19;100.00;99609.83;105267;1259;68392;-49
2023/04/24 03:58:33;;;;;;;5.70;1.20;;;;;;;9.24;100.00;99603.89;105409;1258;76834;-50
2023/04/24 04:01:00;;;;;;;2.70;0.90;;;;;;;9.29;100.00;99604.73;105207;1258;60566;-51
2023/04/24 04:03:42;;;;;;;4.50;1.00;;;;;;;9.35;100.00;99603.17;105238;1253;62391;-50
2023/04/24 04:06:11;;;;;;;2.70;1.30;;;;;;;9.43;100.00;99599.62;105306;1258;75775;-50
2023/04/24 04:08:38;;;;;;;5.00;1.10;;;;;;;9.53;100.00;99599.48;105699;1254;67447;-49
2023/04/24 04:11:04;;;;;;;3.70;1.10;;;;;;;9.67;100.00;99599.92;105379;1253;74713;-47
2023/04/24 04:13:31;;;;;;;1.80;1.10;;;;;;;9.77;100.00;99597.27;105313;1253;61691;-49
2023/04/24 04:15:58;;;;;;;3.60;1.00;;;;;;;9.83;100.00;99595.36;105332;1253;61677;-49
2023/04/24 04:18:25;;;;;;;4.30;1.10;;;;;;;9.88;100.00;99594.04;105291;1254;75361;-46
2023/04/24 04:20:52;;;;;;;3.40;1.30;;;;;;;9.92;100.00;99593.02;105322;1258;69544;-50
2023/04/24 04:23:18;;;;;;;2.60;1.40;;;;;;;9.94;100.00;99593.06;105306;1256;71278;-50
2023/04/24 04:26:06;;;;;;;5.10;0.90;;;;;;;9.97;100.00;99591.67;105248;1258;61009;-50
2023/04/24 04:28:45;;;;;;;7.40;1.20;;;;;;;10.03;100.00;99591.73;105311;1254;60160;-46
2023/04/24 04:31:12;;;;;;;2.50;1.10;;;;;;;10.13;100.00;99588.38;105233;1259;72938;-49
2023/04/24 04:33:39;;;;;;;4.40;1.20;;;;;;;10.22;100.00;99586.15;105090;1253;67787;-50
2023/04/24 04:36:07;;;;;;;2.30;0.90;;;;;;;10.28;100.00;99584.25;105599;1253;73183;-50
2023/04/24 04:38:35;;;;;;;1.60;1.10;;;;;;;10.33;100.00;99585.06;105536;1256;62182;-50
2023/04/24 04:41:08;;;;;;;2.00;1.10;;;;;;;10.38;100.00;99582.86;105317;1253;62009;-49
2023/04/24 04:43:36;;;;;;;2.00;1.20;;;;;;;10.43;100.00;99582.04;105213;1256;76267;-50
2023/04/24 04:46:03;;;;;;;2.40;1.30;;;;;;;10.49;100.00;99580.69;104879;1260;65556;-49
2023/04/24 04:48:48;;;;;;;1.40;1.20;;;;;;;10.54;100.00;99579.14;105206;1257;73871;-46
2023/04/24 04:51:15;;;;;;;4.20;1.20;;;;;;;10.60;100.00;99579.73;104882;1256;60529;-51
2023/04/24 04:53:42;;;;;;;5.40;1.90;;;;;;;10.67;100.00;99577.61;106178;1258;62421;-49
2023/04/24 04:56:08;;;;;;;18.20;6.50;;;;;;;10.72;100.00;99581.30;104748;1258;75662;-51
2023/04/24 04:58:39;;;;;;;10.40;4.00;;;;;;;10.75;100.00;99578.81;104940;1259;69069;-48
2023/04/24 05:01:08;;;;;;;5.90;2.80;;;;;;;10.78;100.00;99574.54;104904;1253;73107;-50
2023/04/24 05:03:41;;;;;;;7.10;3.00;;;;;;;10.80;100.00;99575.52;105188;1253;62362;-49
2023/04/24 05:06:09;;;;;;;3.60;2.90;;;;;;;10.81;100.00;99576.84;109119;1254;62515;-50
2023/04/24 05:08:39;;;;;;;4.80;3.60;;;;;;;10.84;100.00;99576.00;109013;1253;74042;-50
2023/04/24 05:11:14;;;;;;;4.30;2.90;;;;;;;10.86;100.00;99573.18;108995;1255;67839;-50
2023/04/24 05:13:41;;;;;;;4.50;2.40;;;;;;;10.89;100.00;99570.30;108918;1253;72203;-50
2023/04/24 05:16:12;;;;;;;5.80;3.00;;;;;;;10.92;100.00;99566.95;108920;1253;62498;-50
2023/04/24 05:18:39;;;;;;;5.60;2.60;;;;;;;10.95;100.00;99567.88;108907;1253;61091;-50
2023/04/24 05:21:07;;;;;;;7.20;3.90;;;;;;;10.99;100.00;99572.33;108919;1253;74222;-50
2023/04/24 05:23:35;;;;;;;4.40;3.00;;;;;;;11.04;100.00;99568.28;108871;1253;68379;-50
2023/04/24 05:26:02;;;;;;;5.50;3.20;;;;;;;11.10;100.00;99567.25;108833;1256;72349;-51
2023/04/24 05:28:31;;;;;;;5.70;2.40;;;;;;;11.15;100.00;99555.84;108988;1253;61274;-50
2023/04/24 05:31:04;;;;;;;6.30;3.10;;;;;;;11.22;100.00;99554.05;108794;1253;61255;-49
2023/04/24 05:33:31;;;;;;;7.20;4.00;;;;;;;11.28;100.00;99552.07;108899;1253;73855;-50
2023/04/24 05:35:58;;;;;;;3.10;2.80;;;;;;;11.34;100.00;99544.56;108828;1256;68250;-52
2023/04/24 05:38:25;;;;;;;4.30;3.20;;;;;;;11.40;100.00;99545.48;108839;1256;73032;-50
2023/04/24 05:40:51;;;;;;;4.30;3.10;;;;;;;11.50;100.00;99544.06;109010;1253;59595;-51
2023/04/24 05:43:19;;;;;;;8.70;3.00;;;;;;;11.58;100.00;99540.71;108950;1253;58817;-51
2023/04/24 05:45:45;;;;;;;7.50;2.20;;;;;;;11.67;100.00;99537.16;108943;1253;73889;-51
2023/04/24 05:48:12;;;;;;;7.70;2.50;;;;;;;11.76;100.00;99534.35;108943;1253;68615;-52
2023/04/24 05:50:39;;;;;;;2.90;2.00;;;;;;;11.87;100.00;99525.98;105276;1253;74504;-50
2023/04/24 05:53:07;;;;;;;6.50;1.60;;;;;;;11.99;100.00;99522.96;105294;1256;61504;-52
2023/04/24 05:55:35;;;;;;;2.50;1.40;;;;;;;12.14;100.00;99517.59;106345;1257;60856;-50
2023/04/24 05:58:02;;;;;;;3.10;1.70;;;;;;;12.31;100.00;99510.13;105539;1258;73676;-51
2023/04/24 06:00:29;;;;;;;4.30;1.10;;;;;;;12.47;100.00;99509.48;105329;1258;66096;-50
2023/04/24 06:03:03;;;;;;;5.70;1.20;;;;;;;12.65;100.00;99501.77;105524;1259;75014;-51
2023/04/24 06:05:31;;;;;;;2.50;1.20;;;;;;;12.84;100.00;99496.27;105189;1253;62309;-49
2023/04/24 06:07:58;;;;;;;3.20;1.10;;;;;;;13.03;100.00;99489.66;106635;1253;60321;-50
2023/04/24 06:10:28;;;;;;;1.80;1.00;;;;;;;13.24;100.00;99476.99;104959;1258;74214;-50
2023/04/24 06:13:00;;;;;;;1.20;0.90;;;;;;;13.45;100.00;99475.52;104876;1253;69009;-50
2023/04/24 06:15:30;;;;;;;3.60;0.90;;;;;;;13.67;100.00;99474.58;105559;1256;74607;-48
2023/04/24 06:18:00;;;;;;;1.40;0.90;;;;;;;13.88;100.00;99467.98;105102;1256;61261;-50
2023/04/24 06:20:26;;;;;;;1.60;1.10;;;;;;;14.05;100.00;99460.33;104740;1253;62197;-51
2023/04/24 06:22:53;;;;;;;1.30;0.80;;;;;;;14.23;100.00;99460.95;105048;1261;76829;-50
2023/04/24 06:25:20;;;;;;;1.30;0.80;;;;;;;14.39;100.00;99453.69;104810;1257;67066;-48
2023/04/24 06:27:49;;;;;;;4.70;0.80;;;;;;;14.55;100.00;99446.98;104522;1253;71336;-49
2023/04/24 06:30:16;;;;;;;1.40;0.90;;;;;;;14.70;100.00;99441.80;104948;1260;62039;-50
2023/04/24 06:32:43;;;;;;;4.60;0.70;;;;;;;14.85;100.00;99435.73;104806;1253;62606;-49
2023/04/24 06:37:11;;;;;;;1.30;0.90;;;;;;;15.10;100.00;99430.98;101839;1293;600192;-49
2023/04/24 06:39:39;;;;;;;1.60;1.10;;;;;;;15.23;100.00;99423.35;103906;1272;62724;-49
2023/04/24 06:42:07;;;;;;;2.30;1.00;;;;;;;15.37;100.00;99423.09;104517;1267;60587;-50
2023/04/24 06:44:40;;;;;;;2.10;1.00;;;;;;;15.50;100.00;99422.83;107164;1269;74571;-49
2023/04/24 06:47:08;;;;;;;1.10;0.80;;;;;;;15.63;100.00;99422.29;103960;1271;70051;-49
2023/04/24 06:49:36;;;;;;;1.60;0.90;;;;;;;15.72;100.00;99414.89;104482;1273;73305;-51
2023/04/24 06:52:02;;;;;;;1.70;0.90;;;;;;;15.79;100.00;99408.75;104590;1269;139796;-48
2023/04/24 06:54:30;;;;;;;4.60;0.90;;;;;;;15.87;100.00;99405.43;104680;1267;61012;-51
2023/04/24 06:56:57;;;;;;;4.20;0.80;;;;;;;15.97;100.00;99407.95;104670;1269;72821;-49
2023/04/24 06:59:24;;;;;;;3.50;0.70;;;;;;;16.05;100.00;99410.75;104736;1264;69191;-52
2023/04/24 07:01:51;;;;;;;2.40;1.10;;;;;;;16.14;100.00;99408.24;105687;1266;71204;-49
2023/04/24 07:04:21;;;;;;;2.50;0.80;;;;;;;16.23;100.00;99405.20;104723;1264;62146;-49
2023/04/24 07:06:49;;;;;;;1.00;0.70;;;;;;;16.33;100.00;99407.66;104872;1269;62036;-49
2023/04/24 07:09:18;;;;;;;3.70;0.80;;;;;;;16.42;100.00;99408.77;104833;1270;73162;-49
2023/04/24 07:11:45;;;;;;;1.90;0.60;;;;;;;16.51;100.00;99406.80;104438;1269;69249;-50
2023/04/24 07:14:12;;;;;;;1.50;0.70;;;;;;;16.60;100.00;99402.52;104525;1269;75356;-52
2023/04/24 07:16:39;;;;;;;0.60;0.50;;;;;;;16.65;100.00;99403.39;104554;1269;61022;-52
2023/04/24 07:19:06;;;;;;;1.90;0.50;;;;;;;16.71;100.00;99399.33;104506;1265;60291;-51
2023/04/24 07:21:33;;;;;;;4.70;0.60;;;;;;;16.78;100.00;99395.34;104538;1270;74577;-51
2023/04/24 07:24:01;;;;;;;1.10;0.60;;;;;;;16.86;100.00;99398.28;104770;1270;67568;-51
2023/04/24 07:26:29;;;;;;;0.60;0.50;;;;;;;16.93;100.00;99396.06;104498;1273;70888;-50
2023/04/24 07:28:56;;;;;;;0.40;0.40;;;;;;;16.99;100.00;99392.13;106560;1267;59628;-51
2023/04/24 07:31:22;;;;;;;0.80;0.40;;;;;;;17.04;100.00;99389.57;104548;1269;60301;-48
2023/04/24 07:33:50;;;;;;;0.70;0.50;;;;;;;17.09;100.00;99390.84;104526;1273;72789;-50
2023/04/24 07:36:18;;;;;;;0.70;0.40;;;;;;;17.11;100.00;99390.06;104501;1269;66959;-50
2023/04/24 07:38:46;;;;;;;3.30;0.40;;;;;;;17.15;100.00;99388.71;106716;1267;73595;-49
2023/04/24 07:41:13;;;;;;;3.90;0.60;;;;;;;17.19;100.00;99386.90;104563;1267;61582;-50
2023/04/24 07:43:40;;;;;;;3.70;0.50;;;;;;;17.25;100.00;99387.30;108069;1267;58986;-52
2023/04/24 07:46:08;;;;;;;0.90;0.50;;;;;;;17.32;100.00;99383.31;106382;1269;73679;-52
2023/04/24 07:48:35;;;;;;;1.40;0.40;;;;;;;17.36;100.00;99385.98;104354;1270;69575;-50
2023/04/24 07:51:01;;;;;;;1.50;0.60;;;;;;;17.43;100.00;99387.81;104152;1267;72945;-51
2023/04/24 07:53:28;;;;;;;1.30;0.60;;;;;;;17.49;100.00;99385.90;104420;1270;64949;-49
2023/04/24 07:55:56;;;;;;;1.20;0.40;;;;;;;17.53;100.00;99380.99;104223;1266;60839;-50
2023/04/24 07:58:22;;;;;;;0.60;0.50;;;;;;;17.59;100.00;99383.79;104103;1264;75439;-52
2023/04/24 08:00:49;;;;;;;0.70;0.40;;;;;;;17.63;100.00;99384.69;104142;1270;65791;-51
2023/04/24 08:03:19;;;;;;;0.80;0.40;;;;;;;17.70;100.00;99385.39;104300;1270;73106;-53
2023/04/24 08:05:46;;;;;;;2.50;0.40;;;;;;;17.75;100.00;99380.61;104277;1269;62412;-52
2023/04/24 08:08:13;;;;;;;6.10;0.70;;;;;;;17.82;100.00;99384.59;104338;1270;60677;-50
2023/04/24 08:10:40;;;;;;;1.10;0.40;;;;;;;17.85;100.00;99384.20;104391;1265;74153;-53
2023/04/24 08:13:07;;;;;;;2.80;0.70;;;;;;;17.85;100.00;99382.72;104474;1270;70558;-49
2023/04/24 08:15:34;;;;;;;0.50;0.50;;;;;;;17.86;100.00;99381.38;104536;1270;71363;-49
2023/04/24 08:18:00;;;;;;;0.90;0.40;;;;;;;17.89;100.00;99380.59;104652;1273;60420;-53
2023/04/24 08:20:27;;;;;;;0.40;0.30;;;;;;;17.93;100.00;99377.32;104679;1267;62658;-52
2023/04/24 08:22:54;;;;;;;3.60;0.60;;;;;;;17.97;100.00;99380.23;104528;1271;74296;-52
2023/04/24 08:25:22;;;;;;;0.70;0.40;;;;;;;18.03;100.00;99376.83;104573;1270;67406;-50
2023/04/24 08:27:49;;;;;;;0.40;0.40;;;;;;;18.09;100.00;99366.65;108213;1266;71597;-52
2023/04/24 08:30:16;;;;;;;0.60;0.40;;;;;;;18.14;100.00;99368.40;108721;1263;61770;-52
2023/04/24 08:32:43;;;;;;;0.90;0.40;;;;;;;18.13;100.00;99367.90;108677;1258;59959;-53
2023/04/24 08:35:10;;;;;;;3.60;0.40;;;;;;;18.15;100.00;99366.54;108730;1257;73644;-51
2023/04/24 08:37:37;;;;;;;0.80;0.50;;;;;;;18.19;100.00;99360.02;108779;1261;67199;-52
2023/04/24 08:40:06;;;;;;;0.70;0.40;;;;;;;18.27;100.00;99363.85;108737;1258;74468;-52
2023/04/24 08:42:33;;;;;;;0.50;0.50;;;;;;;18.35;100.00;99357.51;108726;1259;61787;-52
2023/04/24 08:45:00;;;;;;;0.90;0.30;;;;;;;18.40;100.00;99355.64;106416;1260;60194;-52
2023/04/24 08:47:27;;;;;;;1.00;0.40;;;;;;;18.46;100.00;99353.98;108585;1257;73762;-52
2023/04/24 08:49:54;;;;;;;1.10;0.40;;;;;;;18.51;100.00;99360.11;108547;1257;67187;-52
2023/04/24 08:52:21;;;;;;;1.50;0.40;;;;;;;18.58;100.00;99353.56;108702;1260;74711;-54
2023/04/24 08:54:48;;;;;;;0.40;0.30;;;;;;;18.64;100.00;99353.93;108600;1257;62415;-52
2023/04/24 08:57:15;;;;;;;0.70;0.50;;;;;;;18.71;100.00;99343.90;108634;1260;61668;-52
2023/04/24 08:59:41;;;;;;;0.70;0.40;;;;;;;18.74;100.00;99344.84;106301;1258;73688;-52
2023/04/24 09:02:10;;;;;;;0.90;0.40;;;;;;;18.73;100.00;99334.71;105245;1261;69504;-50
2023/04/24 09:04:37;;;;;;;0.70;0.50;;;;;;;18.68;100.00;99336.31;105221;1273;74687;-52
2023/04/24 09:07:05;;;;;;;1.20;0.50;;;;;;;18.60;100.00;99336.65;105523;1262;60420;-50
2023/04/24 09:09:32;;;;;;;1.30;0.40;;;;;;;18.51;100.00;99342.66;105404;1261;62356;-50
2023/04/24 09:11:59;;;;;;;2.20;0.40;;;;;;;18.43;100.00;99339.58;105178;1258;75709;-52
2023/04/24 09:14:26;;;;;;;0.40;0.30;;;;;;;18.39;100.00;99339.77;104984;1258;66732;-54
2023/04/24 09:16:52;;;;;;;1.10;0.40;;;;;;;18.35;100.00;99337.59;104995;1260;71548;-51
2023/04/24 09:19:21;;;;;;;1.00;0.50;;;;;;;18.29;100.00;99336.95;105032;1260;59848;-50
2023/04/24 09:21:48;;;;;;;0.50;0.40;;;;;;;18.24;100.00;99336.86;104900;1258;62483;-53
2023/04/24 09:24:22;;;;;;;0.40;0.40;;;;;;;18.17;100.00;99336.58;104622;1263;74210;-50
2023/04/24 09:26:57;;;;;;;0.30;0.30;;;;;;;18.11;100.00;99336.01;104970;1262;69336;-51
2023/04/24 09:29:24;;;;;;;0.70;0.40;;;;;;;18.05;100.00;99337.23;106089;1263;73383;-53
2023/04/24 09:31:51;;;;;;;1.70;0.50;;;;;;;17.99;100.00;99332.11;105204;1263;60346;-52
2023/04/24 09:34:25;;;;;;;6.30;0.40;;;;;;;17.96;100.00;99330.40;104859;1263;59972;-51
2023/04/24 09:36:52;;;;;;;;;;;;;;;17.99;100.00;99332.70;108213;1261;73710;-53
2023/04/24 09:39:21;;;;;;;0.50;0.30;;;;;;;18.03;100.00;99333.11;105227;1264;65252;-52
2023/04/24 09:41:49;;;;;;;1.00;0.30;;;;;;;18.05;100.00;99336.27;105168;1258;74889;-52
2023/04/24 09:44:26;;;;;;;2.40;0.30;;;;;;;18.07;100.00;99336.89;105140;1263;59889;-53
2023/04/24 09:46:57;;;;;;;0.40;0.30;;;;;;;18.07;100.00;99331.64;106075;1262;59614;-52
2023/04/24 09:49:24;;;;;;;0.30;0.30;;;;;;;18.05;100.00;99330.85;106144;1260;74117;-53
2023/04/24 09:51:51;;;;;;;0.70;0.40;;;;;;;18.04;100.00;99330.95;105299;1267;67944;-53
2023/04/24 09:54:20;;;;;;;2.60;0.40;;;;;;;18.02;100.00;99328.98;104956;1261;72531;-50
2023/04/24 09:56:49;;;;;;;2.40;0.40;;;;;;;17.99;100.00;99325.42;105202;1260;59720;-52
2023/04/24 09:59:18;;;;;;;4.90;0.40;;;;;;;17.95;100.00;99322.18;105067;1263;60313;-52
2023/04/24 10:01:44;;;;;;;0.90;0.40;;;;;;;17.91;100.00;99317.91;106079;1258;73176;-53
2023/04/24 10:04:19;;;;;;;2.50;0.40;;;;;;;17.87;100.00;99318.06;105002;1260;66981;-54
2023/04/24 10:06:48;;;;;;;1.00;0.30;;;;;;;17.85;100.00;99319.75;107019;1263;75916;-52
2023/04/24 10:09:16;;;;;;;0.40;0.30;;;;;;;17.83;100.00;99320.84;105129;1262;62704;-52
2023/04/24 10:11:45;;;;;;;3.30;0.30;;;;;;;17.82;100.00;99321.26;105227;1260;61685;-53
2023/04/24 10:14:16;;;;;;;0.80;0.60;;;;;;;17.82;100.00;99322.01;105386;1254;73172;-52
2023/04/24 10:16:43;;;;;;;2.90;0.30;;;;;;;17.80;100.00;99318.37;105338;1260;70556;-53
2023/04/24 10:19:11;;;;;;;1.40;0.40;;;;;;;17.78;100.00;99314.34;105938;1260;70776;-52
2023/04/24 10:21:42;;;;;;;0.60;0.40;;;;;;;17.78;100.00;99316.66;105364;1254;59762;-53
2023/04/24 10:24:09;;;;;;;0.50;0.40;;;;;;;17.74;100.00;99308.68;104813;1254;61794;-51
2023/04/24 10:26:37;;;;;;;0.80;0.30;;;;;;;17.72;100.00;99312.31;104821;1255;73551;-52
2023/04/24 10:29:04;;;;;;;0.60;0.40;;;;;;;17.72;100.00;99308.15;104683;1257;67277;-52
2023/04/24 10:31:31;;;;;;;0.50;0.40;;;;;;;17.73;100.00;99310.04;104249;1263;74916;-52
2023/04/24 10:33:58;;;;;;;2.90;0.50;;;;;;;17.75;100.00;99304.45;105481;1260;60296;-53
2023/04/24 10:36:26;;;;;;;0.60;0.50;;;;;;;17.74;100.00;99307.44;105053;1256;62080;-52
2023/04/24 10:38:54;;;;;;;0.90;0.40;;;;;;;17.73;100.00;99304.02;105147;1255;74939;-53
2023/04/24 10:41:23;;;;;;;0.30;0.30;;;;;;;17.74;100.00;99307.23;105620;1254;69115;-52
2023/04/24 10:44:09;;;;;;;0.60;0.40;;;;;;;17.76;100.00;99301.98;105359;1257;73515;-52
2023/04/24 10:46:37;;;;;;;2.20;0.70;;;;;;;17.83;100.00;99299.98;105180;1256;61381;-52
2023/04/24 10:49:08;;;;;;;0.30;0.30;;;;;;;17.90;100.00;99296.63;105140;1260;60532;-53
2023/04/24 10:51:48;;;;;;;0.50;0.40;;;;;;;17.97;100.00;99299.09;105341;1257;74859;-53
2023/04/24 10:54:29;;;;;;;2.60;0.40;;;;;;;18.05;100.00;99305.52;106554;1257;69803;-54
2023/04/24 10:57:24;;;;;;;2.30;0.40;;;;;;;18.10;100.00;99302.31;105255;1254;75086;-53
2023/04/24 11:00:09;;;;;;;4.10;0.40;;;;;;;18.16;100.00;99294.70;105436;1259;61203;-53
2023/04/24 11:02:36;;;;;;;;;;;;;;;18.21;100.00;99294.25;105779;1257;62368;-54
2023/04/24 11:05:04;;;;;;;0.30;0.20;;;;;;;18.25;100.00;99289.97;105317;1254;74149;-53
2023/04/24 11:08:10;;;;;;;0.40;0.30;;;;;;;18.25;100.00;99307.03;105467;1260;69472;-54
2023/04/24 11:10:43;;;;;;;2.30;0.40;;;;;;;18.24;100.00;99323.26;105084;1259;72761;-54
2023/04/24 11:13:10;;;;;;;10.50;0.60;;;;;;;18.19;100.00;99316.05;108835;1254;61478;-52
2023/04/24 11:15:43;;;;;;;1.60;0.60;;;;;;;18.09;100.00;99316.02;105240;1260;62281;-53
2023/04/24 11:18:16;;;;;;;1.10;0.60;;;;;;;17.97;100.00;99320.50;108786;1254;74679;-53
2023/04/24 11:20:44;;;;;;;1.60;0.50;;;;;;;17.89;100.00;99325.90;108764;1254;68821;-52
2023/04/24 11:23:12;;;;;;;1.60;0.50;;;;;;;17.85;100.00;99328.44;108854;1254;74356;-53
2023/04/24 11:25:38;;;;;;;1.40;0.50;;;;;;;17.82;100.00;99326.68;108688;1254;60380;-53
2023/04/24 11:28:05;;;;;;;0.80;0.50;;;;;;;17.77;100.00;99330.41;108759;1254;59730;-53
2023/04/24 11:30:35;;;;;;;0.50;0.50;;;;;;;17.68;100.00;99321.31;108849;1254;76395;-53